Time;durP1;ratioP1;P1;durP2;ratioP2;P2;SDS_P1;SDS_P2;PMS_P1;PMS_P2;Temp;Humidity;BMP_temperature;BMP_pressure;BME280_temperature;BME280_humidity;BME280_pressure;Samples;Min_cycle;Max_cycle;Signal;HPM_P1;HPM_P2
2023/08/15 00:00:19;;;;;;;6.65;4.45;;;;;;;;;;4879861;29;20044;-62
2023/08/15 00:02:44;;;;;;;8.05;4.90;;;;;;;;;;4909285;29;20036;-63
2023/08/15 00:05:10;;;;;;;7.55;4.50;;;;;;;;;;4912150;29;20388;-62
2023/08/15 00:07:35;;;;;;;8.75;4.95;;;;;;;;;;4909264;29;20434;-62
2023/08/15 00:10:01;;;;;;;7.55;4.85;;;;;;;;;;4889540;29;20048;-62
2023/08/15 00:12:26;;;;;;;10.95;5.18;;;;;;;;;;4876834;29;20470;-62
2023/08/15 00:14:52;;;;;;;7.32;5.20;;;;;;;;;;4878914;29;20512;-61
2023/08/15 00:17:20;;;;;;;7.47;5.32;;;;;;;;;;4895612;29;20481;-62
2023/08/15 00:19:46;;;;;;;8.10;5.22;;;;;;;;;;4895155;29;20032;-62
2023/08/15 00:22:11;;;;;;;8.85;5.10;;;;;;;;;;4894088;29;20044;-62
2023/08/15 00:24:37;;;;;;;6.97;5.43;;;;;;;;;;4893871;29;20037;-63
2023/08/15 00:27:02;;;;;;;7.10;5.50;;;;;;;;;;4894955;29;20044;-62
2023/08/15 00:29:28;;;;;;;6.75;5.30;;;;;;;;;;4882579;29;20119;-62
2023/08/15 00:31:53;;;;;;;7.18;5.10;;;;;;;;;;4895817;29;20580;-62
2023/08/15 00:34:18;;;;;;;8.90;5.13;;;;;;;;;;4879105;29;20092;-62
2023/08/15 00:36:44;;;;;;;8.38;5.15;;;;;;;;;;4893807;29;20597;-62
2023/08/15 00:39:09;;;;;;;8.18;5.35;;;;;;;;;;4893422;29;20037;-62
2023/08/15 00:41:36;;;;;;;7.78;5.68;;;;;;;;;;4894907;29;20044;-62
2023/08/15 00:44:01;;;;;;;6.82;5.65;;;;;;;;;;4895965;29;20546;-62
2023/08/15 00:46:28;;;;;;;7.28;5.43;;;;;;;;;;4894238;29;20029;-63
2023/08/15 00:48:55;;;;;;;7.35;5.72;;;;;;;;;;4892929;29;20047;-62
2023/08/15 00:51:20;;;;;;;7.55;5.75;;;;;;;;;;4903888;29;20115;-62
2023/08/15 00:53:47;;;;;;;7.78;5.65;;;;;;;;;;4892631;29;20113;-62
2023/08/15 00:56:13;;;;;;;7.13;5.70;;;;;;;;;;4878553;29;20048;-62
2023/08/15 00:58:39;;;;;;;7.30;5.57;;;;;;;;;;4892925;29;20044;-62
2023/08/15 01:01:04;;;;;;;8.50;5.57;;;;;;;;;;4912275;29;20046;-62
2023/08/15 01:03:30;;;;;;;9.07;5.53;;;;;;;;;;4905299;29;20377;-62
2023/08/15 01:05:55;;;;;;;10.82;6.10;;;;;;;;;;4898926;29;20029;-62
2023/08/15 01:08:21;;;;;;;9.57;6.07;;;;;;;;;;4915120;29;20363;-61
2023/08/15 01:10:47;;;;;;;6.88;5.72;;;;;;;;;;4897542;29;20445;-61
2023/08/15 01:13:35;;;;;;;8.18;6.25;;;;;;;;;;4899774;29;20044;-62
2023/08/15 01:16:03;;;;;;;8.18;6.28;;;;;;;;;;4891750;29;20028;-62
2023/08/15 01:18:35;;;;;;;7.53;6.25;;;;;;;;;;4901059;29;20036;-62
2023/08/15 01:21:01;;;;;;;8.95;6.40;;;;;;;;;;4901765;29;20040;-62
2023/08/15 01:23:40;;;;;;;8.23;6.00;;;;;;;;;;4918505;29;20469;-62
2023/08/15 01:26:06;;;;;;;7.15;5.97;;;;;;;;;;4904435;29;20036;-62
2023/08/15 01:28:32;;;;;;;10.82;6.38;;;;;;;;;;4914532;29;20042;-62
2023/08/15 01:31:09;;;;;;;8.18;6.05;;;;;;;;;;4885695;29;20092;-62
2023/08/15 01:33:40;;;;;;;8.38;6.18;;;;;;;;;;4897803;29;20040;-62
2023/08/15 01:36:13;;;;;;;7.63;6.22;;;;;;;;;;4898611;29;20458;-62
2023/08/15 01:38:47;;;;;;;8.93;6.55;;;;;;;;;;4897326;29;20033;-62
2023/08/15 01:41:18;;;;;;;8.77;6.50;;;;;;;;;;4865795;29;20509;-62
2023/08/15 01:43:45;;;;;;;8.35;6.57;;;;;;;;;;4897968;29;20481;-62
2023/08/15 01:46:11;;;;;;;8.88;7.05;;;;;;;;;;4898658;29;20363;-61
2023/08/15 01:48:41;;;;;;;10.45;6.93;;;;;;;;;;4896282;29;20035;-62
2023/08/15 01:51:07;;;;;;;8.77;6.57;;;;;;;;;;4896152;29;20079;-62
2023/08/15 01:53:34;;;;;;;9.45;6.53;;;;;;;;;;4896525;29;20092;-62
2023/08/15 01:55:59;;;;;;;10.73;6.53;;;;;;;;;;4898429;29;20115;-62
2023/08/15 01:58:25;;;;;;;9.40;6.70;;;;;;;;;;4910040;29;20147;-62
2023/08/15 02:00:50;;;;;;;8.82;6.65;;;;;;;;;;4899298;29;20046;-62
2023/08/15 02:03:15;;;;;;;8.40;6.25;;;;;;;;;;4915092;29;20115;-62
2023/08/15 02:05:41;;;;;;;9.50;6.63;;;;;;;;;;4913085;29;20032;-62
2023/08/15 02:08:06;;;;;;;10.68;7.07;;;;;;;;;;4898644;29;20111;-62
2023/08/15 02:10:32;;;;;;;10.13;7.03;;;;;;;;;;4910360;29;20028;-62
2023/08/15 02:12:57;;;;;;;8.73;6.72;;;;;;;;;;4905216;29;20047;-62
2023/08/15 02:15:22;;;;;;;9.57;6.47;;;;;;;;;;4897727;29;20462;-62
2023/08/15 02:17:48;;;;;;;9.15;6.20;;;;;;;;;;4910363;29;20033;-62
2023/08/15 02:20:13;;;;;;;9.68;6.47;;;;;;;;;;4917090;29;20397;-62
2023/08/15 02:22:39;;;;;;;9.77;6.47;;;;;;;;;;4906773;29;20036;-62
2023/08/15 02:25:04;;;;;;;9.07;6.57;;;;;;;;;;4910685;29;20043;-62
2023/08/15 02:27:30;;;;;;;9.05;6.78;;;;;;;;;;4914270;29;20036;-62
2023/08/15 02:29:55;;;;;;;10.43;6.88;;;;;;;;;;4911417;29;20040;-62
2023/08/15 02:32:20;;;;;;;7.55;6.10;;;;;;;;;;4917311;29;20032;-62
2023/08/15 02:34:46;;;;;;;10.15;6.65;;;;;;;;;;4890761;29;20036;-62
2023/08/15 02:37:11;;;;;;;9.60;6.22;;;;;;;;;;4896714;29;20044;-62
2023/08/15 02:39:37;;;;;;;7.95;6.07;;;;;;;;;;4907718;29;20047;-62
2023/08/15 02:42:02;;;;;;;8.35;6.30;;;;;;;;;;4895144;29;20514;-62
2023/08/15 02:44:28;;;;;;;8.38;6.03;;;;;;;;;;4906286;29;20044;-62
2023/08/15 02:46:53;;;;;;;8.30;5.82;;;;;;;;;;4913998;29;20564;-62
2023/08/15 02:49:19;;;;;;;8.82;6.30;;;;;;;;;;4914266;29;20118;-61
2023/08/15 02:51:44;;;;;;;10.10;6.00;;;;;;;;;;4911595;29;20024;-62
2023/08/15 02:54:10;;;;;;;9.23;5.60;;;;;;;;;;4906835;29;20119;-62
2023/08/15 02:56:36;;;;;;;8.38;5.97;;;;;;;;;;4910449;29;20127;-62
2023/08/15 02:59:01;;;;;;;9.02;5.93;;;;;;;;;;4893895;29;20093;-62
2023/08/15 03:01:27;;;;;;;9.88;6.13;;;;;;;;;;4880577;29;20044;-62
2023/08/15 03:03:52;;;;;;;7.93;5.60;;;;;;;;;;4907767;29;20035;-62
2023/08/15 03:06:18;;;;;;;8.95;5.90;;;;;;;;;;4916786;29;20458;-62
2023/08/15 03:08:43;;;;;;;8.30;5.50;;;;;;;;;;4898020;29;20115;-62
2023/08/15 03:11:09;;;;;;;7.20;5.82;;;;;;;;;;4895594;29;20119;-62
2023/08/15 03:13:35;;;;;;;8.02;5.47;;;;;;;;;;4879824;29;20405;-62
2023/08/15 03:16:00;;;;;;;6.60;5.63;;;;;;;;;;4894936;29;20040;-62
2023/08/15 03:18:26;;;;;;;9.13;5.97;;;;;;;;;;4896976;29;20078;-61
2023/08/15 03:20:59;;;;;;;9.00;6.38;;;;;;;;;;4892555;29;20036;-62
2023/08/15 03:23:24;;;;;;;8.52;6.22;;;;;;;;;;4894844;29;20041;-62
2023/08/15 03:26:08;;;;;;;10.73;6.38;;;;;;;;;;4894957;29;20457;-64
2023/08/15 03:28:34;;;;;;;8.45;5.95;;;;;;;;;;4894168;29;20040;-62
2023/08/15 03:31:06;;;;;;;8.05;6.07;;;;;;;;;;4891873;29;20040;-62
2023/08/15 03:33:33;;;;;;;7.30;5.85;;;;;;;;;;4894961;29;20488;-62
2023/08/15 03:35:58;;;;;;;11.18;6.30;;;;;;;;;;4893784;29;20044;-62
2023/08/15 03:38:24;;;;;;;12.30;7.40;;;;;;;;;;4902515;29;20039;-62
2023/08/15 03:41:02;;;;;;;9.90;5.93;;;;;;;;;;4904568;29;20032;-62
2023/08/15 03:43:31;;;;;;;8.43;6.30;;;;;;;;;;4897012;29;20037;-62
2023/08/15 03:45:57;;;;;;;9.30;6.38;;;;;;;;;;4895461;29;20644;-62
2023/08/15 03:48:23;;;;;;;9.50;6.57;;;;;;;;;;4895503;29;20050;-62
2023/08/15 03:50:48;;;;;;;10.25;6.05;;;;;;;;;;4878785;29;20036;-62
2023/08/15 03:53:14;;;;;;;11.75;6.93;;;;;;;;;;4895963;29;20041;-62
2023/08/15 03:55:39;;;;;;;7.43;6.32;;;;;;;;;;4878809;29;20112;-62
2023/08/15 03:58:05;;;;;;;10.55;6.22;;;;;;;;;;4894837;29;20053;-62
2023/08/15 04:00:30;;;;;;;9.13;6.57;;;;;;;;;;4895134;29;20040;-62
2023/08/15 04:02:55;;;;;;;9.93;6.50;;;;;;;;;;4893847;29;20032;-60
2023/08/15 04:05:21;;;;;;;10.65;6.47;;;;;;;;;;4895819;29;20128;-59
2023/08/15 04:07:46;;;;;;;8.80;6.50;;;;;;;;;;4896117;29;20031;-60
2023/08/15 04:10:13;;;;;;;10.30;6.88;;;;;;;;;;4893995;29;20035;-60
2023/08/15 04:12:39;;;;;;;12.60;7.25;;;;;;;;;;4894812;29;20032;-60
2023/08/15 04:15:05;;;;;;;11.15;7.38;;;;;;;;;;4896878;29;20374;-59
2023/08/15 04:17:30;;;;;;;11.05;7.95;;;;;;;;;;4894506;29;20052;-61
2023/08/15 04:19:56;;;;;;;9.13;7.93;;;;;;;;;;4876959;29;20051;-59
2023/08/15 04:22:21;;;;;;;13.95;8.65;;;;;;;;;;4893784;29;20036;-60
2023/08/15 04:24:47;;;;;;;15.57;8.70;;;;;;;;;;4892894;29;20556;-60
2023/08/15 04:27:12;;;;;;;11.07;8.30;;;;;;;;;;4878000;29;20418;-59
2023/08/15 04:29:37;;;;;;;12.50;9.02;;;;;;;;;;4875245;29;20040;-60
2023/08/15 04:32:03;;;;;;;13.38;9.40;;;;;;;;;;4895373;29;20040;-59
2023/08/15 04:34:29;;;;;;;14.88;8.70;;;;;;;;;;4896104;29;20033;-59
2023/08/15 04:36:55;;;;;;;15.13;9.15;;;;;;;;;;4894811;29;20379;-59
2023/08/15 04:39:23;;;;;;;13.02;9.65;;;;;;;;;;4895692;29;20497;-59
2023/08/15 04:41:49;;;;;;;13.20;9.40;;;;;;;;;;4882781;29;20024;-60
2023/08/15 04:44:17;;;;;;;15.13;9.80;;;;;;;;;;4899003;29;20043;-59
2023/08/15 04:46:42;;;;;;;14.45;10.15;;;;;;;;;;4882225;29;20029;-60
2023/08/15 04:49:07;;;;;;;15.18;9.40;;;;;;;;;;4900425;29;20039;-59
2023/08/15 04:51:33;;;;;;;14.32;9.70;;;;;;;;;;4899333;29;20076;-59
2023/08/15 04:53:58;;;;;;;14.40;9.32;;;;;;;;;;4899038;29;20639;-60
2023/08/15 04:56:24;;;;;;;13.93;9.68;;;;;;;;;;4900395;29;20382;-60
2023/08/15 04:58:49;;;;;;;12.68;8.82;;;;;;;;;;4899405;29;20131;-59
2023/08/15 05:01:14;;;;;;;13.55;9.23;;;;;;;;;;4899828;29;20473;-59
2023/08/15 05:03:40;;;;;;;13.50;8.63;;;;;;;;;;4899742;29;20097;-60
2023/08/15 05:06:05;;;;;;;14.30;8.88;;;;;;;;;;4900689;29;20494;-61
2023/08/15 05:08:31;;;;;;;13.52;8.15;;;;;;;;;;4894519;29;20092;-64
2023/08/15 05:10:56;;;;;;;11.45;8.43;;;;;;;;;;4895417;29;20537;-66
2023/08/15 05:13:22;;;;;;;14.10;8.40;;;;;;;;;;4899794;29;20033;-65
2023/08/15 05:15:47;;;;;;;18.35;8.23;;;;;;;;;;4896363;29;20084;-63
2023/08/15 05:18:15;;;;;;;15.13;7.85;;;;;;;;;;4882392;29;20402;-66
2023/08/15 05:20:41;;;;;;;13.45;8.23;;;;;;;;;;4898800;29;20036;-69
2023/08/15 05:23:06;;;;;;;10.82;7.97;;;;;;;;;;4898694;29;20045;-64
2023/08/15 05:25:32;;;;;;;15.45;7.80;;;;;;;;;;4896919;29;20088;-65
2023/08/15 05:27:57;;;;;;;10.18;6.93;;;;;;;;;;4898003;29;20114;-64
2023/08/15 05:30:23;;;;;;;12.55;6.38;;;;;;;;;;4897929;29;20047;-64
2023/08/15 05:32:48;;;;;;;13.15;6.45;;;;;;;;;;4898369;29;20025;-66
2023/08/15 05:35:14;;;;;;;13.90;6.65;;;;;;;;;;4898287;29;20060;-66
2023/08/15 05:37:39;;;;;;;9.80;5.97;;;;;;;;;;4897851;29;20032;-64
2023/08/15 05:40:05;;;;;;;10.68;5.53;;;;;;;;;;4898373;29;20044;-63
2023/08/15 05:42:31;;;;;;;8.65;5.22;;;;;;;;;;4901276;29;20064;-63
2023/08/15 05:44:56;;;;;;;8.20;5.53;;;;;;;;;;4901237;29;20036;-64
2023/08/15 05:47:21;;;;;;;9.07;5.45;;;;;;;;;;4882465;29;20161;-64
2023/08/15 05:49:47;;;;;;;10.98;5.95;;;;;;;;;;4881512;29;20033;-65
2023/08/15 05:52:12;;;;;;;10.45;5.68;;;;;;;;;;4898554;29;20031;-65
2023/08/15 05:54:38;;;;;;;9.68;5.15;;;;;;;;;;4881914;29;20032;-65
2023/08/15 05:57:04;;;;;;;10.15;5.90;;;;;;;;;;4879286;29;20225;-61
2023/08/15 05:59:29;;;;;;;11.07;5.50;;;;;;;;;;4881584;29;20068;-62
2023/08/15 06:01:55;;;;;;;8.82;5.35;;;;;;;;;;4897566;29;20506;-61
2023/08/15 06:04:20;;;;;;;10.43;5.07;;;;;;;;;;4898556;29;20033;-64
2023/08/15 06:06:46;;;;;;;9.00;5.38;;;;;;;;;;4897004;29;20486;-66
2023/08/15 06:09:11;;;;;;;7.95;5.32;;;;;;;;;;4898862;29;20037;-65
2023/08/15 06:11:37;;;;;;;9.75;5.47;;;;;;;;;;4896771;29;20036;-64
2023/08/15 06:14:02;;;;;;;8.95;5.68;;;;;;;;;;4880575;29;20047;-64
2023/08/15 06:16:28;;;;;;;10.20;5.47;;;;;;;;;;4898610;29;20032;-65
2023/08/15 06:18:53;;;;;;;9.88;5.25;;;;;;;;;;4894265;29;20040;-63
2023/08/15 06:21:18;;;;;;;7.90;5.55;;;;;;;;;;4897521;29;20036;-63
2023/08/15 06:23:44;;;;;;;9.95;5.90;;;;;;;;;;4897506;29;20091;-66
2023/08/15 06:26:09;;;;;;;9.38;5.65;;;;;;;;;;4897985;29;20085;-63
2023/08/15 06:28:35;;;;;;;11.35;5.88;;;;;;;;;;4897894;29;20363;-64
2023/08/15 06:31:00;;;;;;;11.48;5.97;;;;;;;;;;4897362;29;20032;-63
2023/08/15 06:33:26;;;;;;;10.23;6.15;;;;;;;;;;4898004;29;20413;-63
2023/08/15 06:35:52;;;;;;;7.97;5.95;;;;;;;;;;4897013;29;20048;-66
2023/08/15 06:38:17;;;;;;;10.45;6.57;;;;;;;;;;4881037;29;20067;-66
2023/08/15 06:40:42;;;;;;;9.25;6.35;;;;;;;;;;4898530;29;20551;-67
2023/08/15 06:43:08;;;;;;;11.50;6.20;;;;;;;;;;4898252;29;20056;-65
2023/08/15 06:45:36;;;;;;;10.57;6.07;;;;;;;;;;4898938;29;20131;-64
2023/08/15 06:48:02;;;;;;;8.60;6.45;;;;;;;;;;4898984;29;20045;-64
2023/08/15 06:50:28;;;;;;;12.40;6.80;;;;;;;;;;4899176;29;20032;-65
2023/08/15 06:52:53;;;;;;;15.23;6.90;;;;;;;;;;4897485;29;20041;-64
2023/08/15 06:55:19;;;;;;;13.48;7.03;;;;;;;;;;4897259;29;20044;-64
2023/08/15 06:57:44;;;;;;;11.63;6.43;;;;;;;;;;4883238;29;20055;-65
2023/08/15 07:00:11;;;;;;;12.77;6.97;;;;;;;;;;4894768;29;20062;-64
2023/08/15 07:02:37;;;;;;;11.55;6.90;;;;;;;;;;4896465;29;20100;-65
2023/08/15 07:05:04;;;;;;;10.55;6.82;;;;;;;;;;4896622;29;20474;-64
2023/08/15 07:07:29;;;;;;;12.57;7.07;;;;;;;;;;4895653;29;20032;-66
2023/08/15 07:09:55;;;;;;;12.98;7.55;;;;;;;;;;4895713;29;20096;-64
2023/08/15 07:12:20;;;;;;;11.43;7.47;;;;;;;;;;4897897;29;20073;-64
2023/08/15 07:14:46;;;;;;;15.30;7.60;;;;;;;;;;4897054;29;20063;-67
2023/08/15 07:17:11;;;;;;;11.50;7.90;;;;;;;;;;4893626;29;20068;-65
2023/08/15 07:19:37;;;;;;;13.23;9.02;;;;;;;;;;4900559;29;20036;-65
2023/08/15 07:22:03;;;;;;;14.88;9.00;;;;;;;;;;4914983;29;20039;-65
2023/08/15 07:24:29;;;;;;;14.00;8.55;;;;;;;;;;4915511;29;20032;-64
2023/08/15 07:26:54;;;;;;;13.98;8.75;;;;;;;;;;4911259;29;20100;-65
2023/08/15 07:29:19;;;;;;;12.45;8.85;;;;;;;;;;4898002;29;20036;-65
2023/08/15 07:31:45;;;;;;;13.10;8.60;;;;;;;;;;4896235;29;20048;-65
2023/08/15 07:34:10;;;;;;;12.60;8.88;;;;;;;;;;4894805;29;20112;-63
2023/08/15 07:36:36;;;;;;;12.88;8.82;;;;;;;;;;4896722;29;20040;-64
2023/08/15 07:39:01;;;;;;;12.18;8.55;;;;;;;;;;4895026;29;20039;-65
2023/08/15 07:41:27;;;;;;;10.68;6.95;;;;;;;;;;4900044;29;20177;-64
2023/08/15 07:43:52;;;;;;;13.57;7.75;;;;;;;;;;4910274;29;20040;-65
2023/08/15 07:46:18;;;;;;;12.05;7.60;;;;;;;;;;4897227;29;20119;-62
2023/08/15 07:48:43;;;;;;;12.38;7.78;;;;;;;;;;4896008;29;20043;-62
2023/08/15 07:51:09;;;;;;;12.93;7.35;;;;;;;;;;4895412;29;20125;-63
2023/08/15 07:53:35;;;;;;;12.88;8.23;;;;;;;;;;4896867;29;20042;-61
2023/08/15 07:56:00;;;;;;;14.15;8.45;;;;;;;;;;4894111;29;20037;-62
2023/08/15 07:58:26;;;;;;;12.95;7.30;;;;;;;;;;4907541;29;20228;-62
2023/08/15 08:00:51;;;;;;;15.25;7.47;;;;;;;;;;4911055;29;20489;-62
2023/08/15 08:03:16;;;;;;;11.73;6.53;;;;;;;;;;4883893;29;20466;-63
2023/08/15 08:05:42;;;;;;;8.77;5.32;;;;;;;;;;4893600;29;20033;-62
2023/08/15 08:08:08;;;;;;;10.73;4.70;;;;;;;;;;4894466;29;20036;-63
2023/08/15 08:10:34;;;;;;;11.30;4.70;;;;;;;;;;4875112;29;20464;-63
2023/08/15 08:13:00;;;;;;;10.70;4.22;;;;;;;;;;4877277;29;20061;-63
2023/08/15 08:15:27;;;;;;;9.02;3.80;;;;;;;;;;4895440;29;20060;-62
2023/08/15 08:17:52;;;;;;;7.38;3.25;;;;;;;;;;4894239;29;20040;-64
2023/08/15 08:20:19;;;;;;;8.40;3.20;;;;;;;;;;4893208;29;20032;-63
2023/08/15 08:22:44;;;;;;;7.90;2.50;;;;;;;;;;4896274;29;20041;-63
2023/08/15 08:25:23;;;;;;;5.35;2.58;;;;;;;;;;4895135;29;20621;-62
2023/08/15 08:27:50;;;;;;;4.38;2.35;;;;;;;;;;4894121;29;20032;-64
2023/08/15 08:30:18;;;;;;;6.47;2.50;;;;;;;;;;4895011;29;20563;-62
2023/08/15 08:32:43;;;;;;;5.68;2.35;;;;;;;;;;4862702;29;20039;-65
2023/08/15 08:35:10;;;;;;;5.47;2.10;;;;;;;;;;4893607;29;20044;-65
2023/08/15 08:37:36;;;;;;;7.20;1.98;;;;;;;;;;4892781;29;20508;-66
2023/08/15 08:40:03;;;;;;;6.50;2.25;;;;;;;;;;4895288;29;20037;-65
2023/08/15 08:42:29;;;;;;;4.47;2.10;;;;;;;;;;4894266;29;20040;-65
2023/08/15 08:44:55;;;;;;;3.60;1.80;;;;;;;;;;4894214;29;20040;-65
2023/08/15 08:47:26;;;;;;;6.22;2.13;;;;;;;;;;4878872;29;20073;-64
2023/08/15 08:49:52;;;;;;;5.32;1.85;;;;;;;;;;4895750;29;20036;-68
2023/08/15 08:52:18;;;;;;;5.50;1.92;;;;;;;;;;4892998;29;20045;-63
2023/08/15 08:54:45;;;;;;;5.55;2.10;;;;;;;;;;4886277;29;20040;-63
2023/08/15 08:57:10;;;;;;;3.92;2.30;;;;;;;;;;4894467;29;20108;-64
2023/08/15 08:59:37;;;;;;;6.00;2.40;;;;;;;;;;4904051;29;20164;-61
2023/08/15 09:02:02;;;;;;;5.05;2.15;;;;;;;;;;4899943;29;20037;-60
2023/08/15 09:04:27;;;;;;;9.73;2.22;;;;;;;;;;4902357;29;20055;-60
2023/08/15 09:06:54;;;;;;;5.43;2.60;;;;;;;;;;4913335;29;20036;-63
2023/08/15 09:09:19;;;;;;;4.28;2.20;;;;;;;;;;4898190;29;20033;-61
2023/08/15 09:11:46;;;;;;;5.80;2.40;;;;;;;;;;4895090;29;20036;-66
2023/08/15 09:14:12;;;;;;;5.63;2.15;;;;;;;;;;4894138;29;20590;-62
2023/08/15 09:16:47;;;;;;;6.80;2.13;;;;;;;;;;4892587;29;20045;-61
2023/08/15 09:19:12;;;;;;;6.25;2.40;;;;;;;;;;4884136;29;20067;-61
2023/08/15 09:21:39;;;;;;;4.55;2.15;;;;;;;;;;4905528;29;20068;-61
2023/08/15 09:24:04;;;;;;;3.45;1.92;;;;;;;;;;4889466;29;20052;-61
2023/08/15 09:26:35;;;;;;;4.50;2.00;;;;;;;;;;4873548;29;20024;-62
2023/08/15 09:29:02;;;;;;;4.88;2.45;;;;;;;;;;4908497;29;20038;-62
2023/08/15 09:31:28;;;;;;;4.30;1.90;;;;;;;;;;4897402;29;20041;-61
2023/08/15 09:33:54;;;;;;;3.42;1.98;;;;;;;;;;4914785;29;20087;-63
2023/08/15 09:36:23;;;;;;;3.78;2.05;;;;;;;;;;4896767;29;20028;-61
2023/08/15 09:38:51;;;;;;;4.30;1.90;;;;;;;;;;4898539;29;20036;-63
2023/08/15 09:41:17;;;;;;;4.25;1.90;;;;;;;;;;4897669;29;20040;-62
2023/08/15 09:43:53;;;;;;;6.82;2.17;;;;;;;;;;4897744;29;20036;-62
2023/08/15 09:46:22;;;;;;;6.18;2.30;;;;;;;;;;4881118;29;20037;-61
2023/08/15 09:48:49;;;;;;;3.47;2.10;;;;;;;;;;4899221;29;20029;-61
2023/08/15 09:51:16;;;;;;;4.70;2.20;;;;;;;;;;4895614;29;20725;-62
2023/08/15 09:53:43;;;;;;;7.10;2.40;;;;;;;;;;4896327;29;20064;-61
2023/08/15 09:56:10;;;;;;;6.85;2.40;;;;;;;;;;4913045;29;20089;-61
2023/08/15 09:58:36;;;;;;;3.83;2.03;;;;;;;;;;4896817;29;20053;-60
2023/08/15 10:01:04;;;;;;;6.35;2.30;;;;;;;;;;4882640;29;20041;-61
2023/08/15 10:03:35;;;;;;;7.43;2.60;;;;;;;;;;4917161;29;20032;-61
2023/08/15 10:06:01;;;;;;;6.75;2.42;;;;;;;;;;4896807;29;20039;-60
2023/08/15 10:08:28;;;;;;;7.82;2.13;;;;;;;;;;4885564;29;20072;-60
2023/08/15 10:10:54;;;;;;;5.63;1.98;;;;;;;;;;4898303;29;20482;-61
2023/08/15 10:13:24;;;;;;;5.30;2.05;;;;;;;;;;4881065;29;20032;-61
2023/08/15 10:15:51;;;;;;;4.32;1.77;;;;;;;;;;4847887;29;20188;-61
2023/08/15 10:18:16;;;;;;;3.78;1.95;;;;;;;;;;4892076;29;20103;-60
2023/08/15 10:20:42;;;;;;;4.97;2.00;;;;;;;;;;4898596;29;20494;-61
2023/08/15 10:23:10;;;;;;;6.38;2.05;;;;;;;;;;4896902;29;20036;-62
2023/08/15 10:25:39;;;;;;;5.18;1.80;;;;;;;;;;4881796;29;20036;-60
2023/08/15 10:28:12;;;;;;;5.60;1.90;;;;;;;;;;4881008;29;20104;-60
2023/08/15 10:30:50;;;;;;;5.93;1.90;;;;;;;;;;4898259;29;20037;-60
2023/08/15 10:33:18;;;;;;;5.55;1.85;;;;;;;;;;4894486;29;20033;-61
2023/08/15 10:35:50;;;;;;;4.80;2.17;;;;;;;;;;4896953;29;20055;-61
2023/08/15 10:38:27;;;;;;;4.55;1.70;;;;;;;;;;4896234;29;20028;-62
2023/08/15 10:41:14;;;;;;;3.78;2.08;;;;;;;;;;4896593;29;20036;-62
2023/08/15 10:43:47;;;;;;;5.00;1.95;;;;;;;;;;4874175;29;20112;-62
2023/08/15 10:46:12;;;;;;;7.07;2.33;;;;;;;;;;4898433;29;20422;-60
2023/08/15 10:48:44;;;;;;;7.43;2.25;;;;;;;;;;4898030;29;20032;-60
2023/08/15 10:51:24;;;;;;;7.00;2.00;;;;;;;;;;4896481;29;20505;-60
2023/08/15 10:53:51;;;;;;;5.10;1.95;;;;;;;;;;4897238;29;20070;-61
2023/08/15 10:56:18;;;;;;;4.85;2.40;;;;;;;;;;4896683;29;20047;-60
2023/08/15 10:58:46;;;;;;;5.70;2.17;;;;;;;;;;4897855;29;20076;-61
2023/08/15 11:01:15;;;;;;;4.15;2.10;;;;;;;;;;4879060;29;20041;-61
2023/08/15 11:03:42;;;;;;;5.70;2.20;;;;;;;;;;4909437;29;20442;-61
2023/08/15 11:06:13;;;;;;;6.40;2.33;;;;;;;;;;4883283;29;20037;-62
2023/08/15 11:08:44;;;;;;;6.47;2.70;;;;;;;;;;4896045;29;20040;-61
2023/08/15 11:11:09;;;;;;;5.25;2.60;;;;;;;;;;4879957;29;20032;-61
2023/08/15 11:13:40;;;;;;;6.72;2.45;;;;;;;;;;4897039;29;20505;-61
2023/08/15 11:16:06;;;;;;;5.13;2.28;;;;;;;;;;4894482;29;20043;-62
2023/08/15 11:18:32;;;;;;;4.55;2.20;;;;;;;;;;4913289;29;20064;-65
2023/08/15 11:20:58;;;;;;;6.75;2.35;;;;;;;;;;4902582;29;20422;-68
2023/08/15 11:23:27;;;;;;;8.60;2.38;;;;;;;;;;4895413;29;20029;-67
2023/08/15 11:25:52;;;;;;;5.22;2.10;;;;;;;;;;4896106;29;20044;-66
2023/08/15 11:28:17;;;;;;;5.47;2.30;;;;;;;;;;4897909;29;20032;-67
2023/08/15 11:30:43;;;;;;;5.38;2.40;;;;;;;;;;4889797;29;20041;-66
2023/08/15 11:33:09;;;;;;;6.85;2.60;;;;;;;;;;4896083;29;20108;-66
2023/08/15 11:35:35;;;;;;;6.10;2.30;;;;;;;;;;4896392;29;20079;-66
2023/08/15 11:38:00;;;;;;;8.18;2.42;;;;;;;;;;4866157;29;20451;-66
2023/08/15 11:40:26;;;;;;;4.78;2.53;;;;;;;;;;4885076;29;20453;-63
2023/08/15 11:42:53;;;;;;;6.05;2.70;;;;;;;;;;4878826;29;20092;-63
2023/08/15 11:45:22;;;;;;;7.47;2.53;;;;;;;;;;4895774;29;20032;-64
2023/08/15 11:48:02;;;;;;;6.53;2.45;;;;;;;;;;4893923;29;20550;-64
2023/08/15 11:50:30;;;;;;;5.82;2.30;;;;;;;;;;4897064;29;20112;-64
2023/08/15 11:52:56;;;;;;;5.57;2.40;;;;;;;;;;4896638;29;20036;-65
2023/08/15 11:55:22;;;;;;;6.03;2.40;;;;;;;;;;4896073;29;20108;-67
2023/08/15 11:57:48;;;;;;;7.93;2.58;;;;;;;;;;4898987;29;20397;-66
2023/08/15 12:00:21;;;;;;;6.00;2.55;;;;;;;;;;4904004;29;20496;-64
2023/08/15 12:02:49;;;;;;;8.35;2.70;;;;;;;;;;4886233;29;20093;-67
2023/08/15 12:05:16;;;;;;;6.20;2.85;;;;;;;;;;4892489;29;20107;-68
2023/08/15 12:07:43;;;;;;;5.22;2.50;;;;;;;;;;4896069;29;20032;-66
2023/08/15 12:10:12;;;;;;;6.50;2.97;;;;;;;;;;4895833;29;20036;-66
2023/08/15 12:12:46;;;;;;;5.85;3.10;;;;;;;;;;4896351;29;20064;-67
2023/08/15 12:15:14;;;;;;;7.13;3.20;;;;;;;;;;4880845;29;20040;-68
2023/08/15 12:17:40;;;;;;;5.93;3.22;;;;;;;;;;4893806;29;20040;-69
2023/08/15 12:20:08;;;;;;;7.63;3.05;;;;;;;;;;4895182;29;20394;-70
2023/08/15 12:22:34;;;;;;;6.97;3.15;;;;;;;;;;4913605;29;20535;-69
2023/08/15 12:25:00;;;;;;;7.50;3.38;;;;;;;;;;4913265;29;20031;-67
2023/08/15 12:27:26;;;;;;;6.30;3.10;;;;;;;;;;4895020;29;20047;-67
2023/08/15 12:29:51;;;;;;;8.57;3.42;;;;;;;;;;4895809;29;20032;-68
2023/08/15 12:32:16;;;;;;;7.72;3.17;;;;;;;;;;4895754;29;20024;-68
2023/08/15 12:34:42;;;;;;;6.70;2.85;;;;;;;;;;4895871;29;20037;-68
2023/08/15 12:37:08;;;;;;;6.32;2.90;;;;;;;;;;4893964;29;20442;-67
2023/08/15 12:39:34;;;;;;;7.97;3.17;;;;;;;;;;4896153;29;20033;-68
2023/08/15 12:41:59;;;;;;;6.22;2.95;;;;;;;;;;4893325;29;20382;-65
2023/08/15 12:44:25;;;;;;;6.10;3.30;;;;;;;;;;4905230;29;20164;-69
2023/08/15 12:46:50;;;;;;;5.97;3.10;;;;;;;;;;4898662;29;20084;-68
2023/08/15 12:49:16;;;;;;;6.72;3.30;;;;;;;;;;4877358;29;20040;-66
2023/08/15 12:51:41;;;;;;;6.30;2.90;;;;;;;;;;4877748;29;20044;-68
2023/08/15 12:54:07;;;;;;;7.22;3.03;;;;;;;;;;4878679;29;20040;-68
2023/08/15 12:56:32;;;;;;;5.43;3.25;;;;;;;;;;4895582;29;20451;-70
2023/08/15 12:58:58;;;;;;;8.88;3.55;;;;;;;;;;4895474;29;20051;-68
2023/08/15 13:01:24;;;;;;;7.88;3.08;;;;;;;;;;4896202;29;20562;-68
2023/08/15 13:03:51;;;;;;;6.47;2.95;;;;;;;;;;4881984;29;20037;-68
2023/08/15 13:06:17;;;;;;;6.50;2.92;;;;;;;;;;4895084;29;20064;-67
2023/08/15 13:08:42;;;;;;;5.57;3.10;;;;;;;;;;4899481;29;20497;-69
2023/08/15 13:11:07;;;;;;;5.20;2.75;;;;;;;;;;4902766;29;20032;-69
2023/08/15 13:13:33;;;;;;;5.80;2.78;;;;;;;;;;4907707;29;20043;-68
2023/08/15 13:15:58;;;;;;;5.28;2.63;;;;;;;;;;4893304;29;20123;-65
2023/08/15 13:18:23;;;;;;;7.07;2.60;;;;;;;;;;4898301;29;20534;-64
2023/08/15 13:20:49;;;;;;;6.60;3.20;;;;;;;;;;4904626;29;20043;-68
2023/08/15 13:23:14;;;;;;;7.35;3.20;;;;;;;;;;4897643;29;20041;-67
2023/08/15 13:25:40;;;;;;;7.93;2.72;;;;;;;;;;4899159;29;20071;-68
2023/08/15 13:28:05;;;;;;;5.82;2.88;;;;;;;;;;4899020;29;20033;-70
2023/08/15 13:30:31;;;;;;;8.20;3.03;;;;;;;;;;4898949;29;20097;-68
2023/08/15 13:32:57;;;;;;;5.47;2.85;;;;;;;;;;4897205;29;20040;-65
2023/08/15 13:35:23;;;;;;;5.25;2.60;;;;;;;;;;4896150;29;20092;-65
2023/08/15 13:37:49;;;;;;;5.20;2.90;;;;;;;;;;4881943;29;20055;-68
2023/08/15 13:40:15;;;;;;;7.43;2.90;;;;;;;;;;4881225;29;20044;-70
2023/08/15 13:42:41;;;;;;;6.60;2.80;;;;;;;;;;4896297;29;20032;-66
2023/08/15 13:45:07;;;;;;;10.60;2.80;;;;;;;;;;4897643;29;20449;-71
2023/08/15 13:47:33;;;;;;;5.55;3.00;;;;;;;;;;4899959;29;20045;-68
2023/08/15 13:50:00;;;;;;;7.28;2.92;;;;;;;;;;4884726;29;20032;-67
2023/08/15 13:52:25;;;;;;;8.25;3.03;;;;;;;;;;4900998;29;20051;-70
2023/08/15 13:54:50;;;;;;;8.35;3.15;;;;;;;;;;4898998;29;20025;-68
2023/08/15 13:57:16;;;;;;;6.60;3.10;;;;;;;;;;4900811;29;20044;-69
2023/08/15 13:59:41;;;;;;;6.53;2.88;;;;;;;;;;4897892;29;20028;-69
2023/08/15 14:02:07;;;;;;;6.07;3.05;;;;;;;;;;4897871;29;20396;-68
2023/08/15 14:04:33;;;;;;;6.50;2.92;;;;;;;;;;4913707;29;20458;-68
2023/08/15 14:07:01;;;;;;;7.45;2.97;;;;;;;;;;4900228;29;20060;-68
2023/08/15 14:09:28;;;;;;;5.90;2.83;;;;;;;;;;4895613;29;20048;-70
2023/08/15 14:11:53;;;;;;;6.05;2.92;;;;;;;;;;4898561;29;20072;-65
2023/08/15 14:14:19;;;;;;;8.90;3.13;;;;;;;;;;4895906;29;20111;-68
2023/08/15 14:16:44;;;;;;;5.38;2.60;;;;;;;;;;4896897;29;20033;-68
2023/08/15 14:19:10;;;;;;;8.18;2.88;;;;;;;;;;4897917;29;20040;-71
2023/08/15 14:21:37;;;;;;;12.90;3.13;;;;;;;;;;4897669;29;20041;-67
2023/08/15 14:24:02;;;;;;;5.30;2.80;;;;;;;;;;4897465;29;20028;-66
2023/08/15 14:26:28;;;;;;;7.07;3.03;;;;;;;;;;4896503;29;20120;-65
2023/08/15 14:28:54;;;;;;;9.38;3.00;;;;;;;;;;4896916;29;20040;-68
2023/08/15 14:31:19;;;;;;;6.22;2.70;;;;;;;;;;4897413;29;20458;-67
2023/08/15 14:33:45;;;;;;;7.70;2.50;;;;;;;;;;4896190;29;20043;-68